Spencer, MA (01562)

5:55 PM EDT on September 04, 2015 (GMT -0400)
Temple Valley | | Change Station
CLOSE
Current Station
Personal Weather Station
Location: Spencer, MA
Elevation: 881 ft
Nearby Weather Stations

Elev 881 ft 42.24 °N, 71.99 °W | Updated 4 seconds ago

Clear
Clear
71.1 °F
Feels Like 75 °F
N
4.6
Wind Variable Wind from SW
Gusts 4.6 mph

Today
High -- | Low -- °F
--% Chance of Precip.
Yesterday
High -- | Low -- °F
Precip. -- in
6:16 AM 7:17 PM
Waning Gibbous, 55% visible
Pressure 30.19 in
Visibility 10.0 miles
Clouds Clear
Heat Index 75 °F
Dew Point 30 °F
Humidity 22%
Rainfall 0.00 in
Snow Depth Not available.
UV 0.0 out of 12
Pollen 8.70 out of 12
Air Quality Not available.
Flu Activity Not available.
METAR KORH 042054Z 09008KT 060V120 10SM CLR 22/13 A3020 RMK AO2 SLP224 T02220128 55001
Pressure 30.19 in
Visibility 10.0 miles
Clouds Clear
Heat Index 75 °F
Dew Point 30 °F
Humidity 22%
Rainfall 0.00 in
Snow Depth Not available.
UV 0.0 out of 12
Pollen 8.70 out of 12
Air Quality Not available.
Flu Activity Not available.
METAR KORH 042054Z 09008KT 060V120 10SM CLR 22/13 A3020 RMK AO2 SLP224 T02220128 55001

10-Day Weather Forecast

×

Almanac

Astronomy

Sep. 04, 2015 Rise Set
Actual Time
Civil Twilight
Nautical Twilight
Astronomical Twilight
Moon
Length of Visible Light
Length of Day
Tomorrow will be .
, % of the Moon is Illuminated

Today's Extremes

State Highs State Lows

Community

WunderPhotos

Upload Photos

1,852,297 photos uploaded!

WunderBlogs® & News

Nearby

Air Quality

  Air Quality AQ Index Pollutant
Not available.

Snow Depth

Station Depth Elevation

Earthquake Activity

City Distance Mag. Time & Date
Minimum magnitude displayed is 2.5.

Coastal Water Temperatures

Place Temperature

Stations

Nearby Weather Stations

Station Location Temp. Windchill Dew Point Humidity Wind Precip. Elev Updated Type